Airport View

Enter AWOS ICAO identifier for current METAR.

ex. KFNL

KTTN 212353Z 20004KT 10SM CLR 23/13 A3016 RMK AO2 SLP207 T02330133 10294 20228 53000

22 Sep 2019 00:03

Frequency: 126.775

Phone: 609-538-8690

Other Area AWOS: KDYL - KPNE - KWRI - KVAY

TAF KTTN 212320Z 2200/2224 VRB05KT P6SM SCT250 FM220400 VRB03KT P6SM SCT250 FM221000 00000KT 5SM BR SCT050 FM221200 VRB03KT P6SM SCT050 FM221600 22005KT P6SM SCT050